Time;durP1;ratioP1;P1;durP2;ratioP2;P2;SDS_P1;SDS_P2;PMS_P1;PMS_P2;Temp;Humidity;BMP_temperature;BMP_pressure;BME280_temperature;BME280_humidity;BME280_pressure;Samples;Min_cycle;Max_cycle;Signal;HPM_P1;HPM_P2
2022/11/20 00:00:44;;;;;;;27.55;12.52;;;;;;;;;;7383381;19;20077;-72
2022/11/20 00:03:09;;;;;;;26.55;12.77;;;;;;;;;;7381864;19;20042;-72
2022/11/20 00:05:35;;;;;;;23.02;11.65;;;;;;;;;;7389003;19;20009;-73
2022/11/20 00:08:00;;;;;;;26.90;11.77;;;;;;;;;;7382909;19;20504;-72
2022/11/20 00:10:26;;;;;;;28.02;12.75;;;;;;;;;;7390592;19;20070;-73
2022/11/20 00:12:51;;;;;;;26.33;13.10;;;;;;;;;;7386255;19;20048;-73
2022/11/20 00:15:17;;;;;;;27.25;11.98;;;;;;;;;;7390274;19;20003;-74
2022/11/20 00:17:42;;;;;;;26.77;10.98;;;;;;;;;;7383469;19;20002;-73
2022/11/20 00:20:08;;;;;;;25.23;11.00;;;;;;;;;;7387021;19;19991;-73
2022/11/20 00:22:33;;;;;;;22.42;11.07;;;;;;;;;;7393673;19;20020;-73
2022/11/20 00:24:58;;;;;;;24.23;10.50;;;;;;;;;;7393379;19;19990;-73
2022/11/20 00:27:24;;;;;;;23.98;11.10;;;;;;;;;;7383771;19;20574;-71
2022/11/20 00:29:49;;;;;;;23.05;11.25;;;;;;;;;;7383415;19;19990;-71
2022/11/20 00:32:14;;;;;;;23.17;11.10;;;;;;;;;;7385903;19;20009;-71
2022/11/20 00:34:40;;;;;;;30.73;12.18;;;;;;;;;;7385139;19;20058;-71
2022/11/20 00:37:05;;;;;;;28.65;12.70;;;;;;;;;;7383664;19;20062;-73
2022/11/20 00:39:30;;;;;;;25.40;11.25;;;;;;;;;;7385615;19;20002;-72
2022/11/20 00:41:56;;;;;;;20.70;10.48;;;;;;;;;;7387498;19;20400;-72
2022/11/20 00:44:21;;;;;;;24.90;10.98;;;;;;;;;;7389825;19;20003;-73
2022/11/20 00:46:46;;;;;;;25.20;11.80;;;;;;;;;;7391442;19;20003;-72
2022/11/20 00:49:12;;;;;;;26.15;10.68;;;;;;;;;;7387129;19;20452;-71
2022/11/20 00:51:37;;;;;;;24.58;11.88;;;;;;;;;;7393238;19;20010;-71
2022/11/20 00:54:02;;;;;;;32.55;12.57;;;;;;;;;;7388413;19;19995;-71
2022/11/20 00:56:28;;;;;;;26.23;12.00;;;;;;;;;;7387912;19;20003;-71
2022/11/20 00:58:54;;;;;;;22.48;11.38;;;;;;;;;;7388643;19;20510;-71
2022/11/20 01:01:25;;;;;;;23.27;12.10;;;;;;;;;;7388417;19;20002;-71
2022/11/20 01:03:52;;;;;;;23.90;11.48;;;;;;;;;;7388313;19;20477;-71
2022/11/20 01:06:23;;;;;;;23.02;11.00;;;;;;;;;;7388687;19;20231;-71
2022/11/20 01:08:50;;;;;;;34.30;15.77;;;;;;;;;;7387215;19;20316;-71
2022/11/20 01:11:20;;;;;;;33.17;15.77;;;;;;;;;;7388381;19;20070;-71
2022/11/20 01:13:47;;;;;;;31.90;15.18;;;;;;;;;;7390811;19;19998;-71
2022/11/20 01:16:23;;;;;;;33.00;14.90;;;;;;;;;;7385978;19;20464;-72
2022/11/20 01:18:52;;;;;;;28.13;13.93;;;;;;;;;;7387936;19;20002;-71
2022/11/20 01:21:20;;;;;;;28.50;14.45;;;;;;;;;;7387734;19;20015;-71
2022/11/20 01:23:47;;;;;;;29.75;13.93;;;;;;;;;;7387843;19;20636;-72
2022/11/20 01:26:16;;;;;;;32.92;14.43;;;;;;;;;;7389750;19;20012;-71
2022/11/20 01:28:41;;;;;;;27.00;14.30;;;;;;;;;;7385633;19;20009;-71
2022/11/20 01:31:27;;;;;;;34.75;15.45;;;;;;;;;;7387719;19;20003;-71
2022/11/20 01:33:55;;;;;;;33.05;15.10;;;;;;;;;;7388344;19;20015;-73
2022/11/20 01:36:22;;;;;;;31.17;13.77;;;;;;;;;;7386933;19;20010;-73
2022/11/20 01:38:47;;;;;;;31.42;15.48;;;;;;;;;;7387456;19;20018;-72
2022/11/20 01:44:01;;;;;;;31.70;15.60;;;;;;;;;;7385613;19;19998;-73
2022/11/20 01:46:27;;;;;;;35.17;15.90;;;;;;;;;;7387448;19;20460;-73
2022/11/20 01:48:58;;;;;;;35.15;15.27;;;;;;;;;;7384739;19;20389;-72
2022/11/20 01:51:42;;;;;;;33.47;15.52;;;;;;;;;;7387607;19;20003;-73
2022/11/20 01:54:15;;;;;;;33.38;15.68;;;;;;;;;;7387610;19;20022;-73
2022/11/20 01:56:44;;;;;;;32.05;15.52;;;;;;;;;;7384813;19;20083;-71
2022/11/20 01:59:11;;;;;;;32.28;15.13;;;;;;;;;;7386929;19;19995;-73
2022/11/20 02:01:38;;;;;;;32.13;15.32;;;;;;;;;;7385096;19;20432;-73
2022/11/20 02:04:05;;;;;;;34.35;15.10;;;;;;;;;;7385524;19;20003;-72
2022/11/20 02:06:47;;;;;;;31.38;15.60;;;;;;;;;;7385747;19;20033;-72
2022/11/20 02:09:13;;;;;;;35.20;15.52;;;;;;;;;;7384878;19;19998;-71
2022/11/20 02:11:38;;;;;;;33.42;15.30;;;;;;;;;;7384902;19;20002;-72
2022/11/20 02:14:04;;;;;;;38.83;16.70;;;;;;;;;;7386273;19;19999;-71
2022/11/20 02:16:39;;;;;;;34.63;16.77;;;;;;;;;;7385386;19;20027;-71
2022/11/20 02:19:09;;;;;;;32.38;15.80;;;;;;;;;;7384150;19;20014;-71
2022/11/20 02:21:48;;;;;;;33.75;14.88;;;;;;;;;;7386011;19;20007;-71
2022/11/20 02:24:16;;;;;;;30.65;14.80;;;;;;;;;;7386099;19;20080;-72
2022/11/20 02:26:55;;;;;;;35.95;16.05;;;;;;;;;;7385105;19;20436;-72
2022/11/20 02:29:27;;;;;;;35.25;15.98;;;;;;;;;;7383971;19;20637;-71
2022/11/20 02:31:55;;;;;;;35.47;15.93;;;;;;;;;;7385924;19;20006;-72
2022/11/20 02:34:20;;;;;;;33.50;15.93;;;;;;;;;;7385566;19;19998;-72
2022/11/20 02:36:46;;;;;;;36.05;16.10;;;;;;;;;;7383777;19;20003;-72
2022/11/20 02:39:13;;;;;;;33.28;14.90;;;;;;;;;;7389594;19;20014;-72
2022/11/20 02:41:39;;;;;;;37.97;15.45;;;;;;;;;;7385457;19;20026;-72
2022/11/20 02:44:05;;;;;;;36.28;16.00;;;;;;;;;;7386382;19;20014;-72
2022/11/20 02:46:31;;;;;;;38.33;16.73;;;;;;;;;;7384199;19;20003;-72
2022/11/20 02:48:57;;;;;;;40.45;16.52;;;;;;;;;;7383195;19;20002;-71
2022/11/20 02:51:23;;;;;;;36.42;16.55;;;;;;;;;;7387770;19;20118;-72
2022/11/20 02:53:48;;;;;;;35.63;15.75;;;;;;;;;;7385503;19;20007;-72
2022/11/20 02:56:13;;;;;;;36.85;16.75;;;;;;;;;;7385206;19;20002;-72
2022/11/20 02:58:39;;;;;;;36.53;17.73;;;;;;;;;;7382766;19;19998;-72
2022/11/20 03:01:04;;;;;;;36.92;16.38;;;;;;;;;;7385066;19;20118;-71
2022/11/20 03:03:29;;;;;;;37.35;16.70;;;;;;;;;;7384726;19;19998;-72
2022/11/20 03:05:54;;;;;;;36.55;15.63;;;;;;;;;;7385989;19;20062;-72
2022/11/20 03:08:20;;;;;;;39.13;16.35;;;;;;;;;;7379990;19;20002;-72
2022/11/20 03:10:45;;;;;;;35.75;16.42;;;;;;;;;;7382471;19;20008;-72
2022/11/20 03:13:11;;;;;;;36.95;16.83;;;;;;;;;;7384466;19;19994;-72
2022/11/20 03:15:36;;;;;;;36.15;16.30;;;;;;;;;;7383365;19;20003;-72
2022/11/20 03:18:02;;;;;;;33.97;15.15;;;;;;;;;;7388064;19;19998;-72
2022/11/20 03:20:28;;;;;;;35.55;16.23;;;;;;;;;;7391712;19;20456;-72
2022/11/20 03:22:53;;;;;;;31.63;14.80;;;;;;;;;;7389828;19;20025;-71
2022/11/20 03:25:19;;;;;;;31.48;15.35;;;;;;;;;;7391713;19;20022;-72
2022/11/20 03:27:44;;;;;;;40.95;17.50;;;;;;;;;;7389712;19;20078;-72
2022/11/20 03:30:10;;;;;;;39.97;16.50;;;;;;;;;;7391932;19;20007;-72
2022/11/20 03:32:35;;;;;;;32.58;15.20;;;;;;;;;;7391528;19;20023;-72
2022/11/20 03:35:00;;;;;;;35.85;16.25;;;;;;;;;;7391442;19;20356;-72
2022/11/20 03:37:26;;;;;;;34.20;16.23;;;;;;;;;;7387879;19;20022;-72
2022/11/20 03:39:51;;;;;;;35.13;15.68;;;;;;;;;;7390978;19;20022;-72
2022/11/20 03:45:00;;;;;;;38.05;15.93;;;;;;;;;;7391452;19;20078;-72
2022/11/20 03:47:25;;;;;;;33.58;16.25;;;;;;;;;;7389249;19;20457;-72
2022/11/20 03:49:51;;;;;;;38.50;16.63;;;;;;;;;;7391450;19;20094;-72
2022/11/20 03:52:16;;;;;;;35.50;15.65;;;;;;;;;;7390826;19;20009;-72
2022/11/20 03:54:42;;;;;;;39.22;15.95;;;;;;;;;;7390244;19;20009;-72
2022/11/20 03:57:07;;;;;;;35.88;16.85;;;;;;;;;;7393428;19;20017;-72
2022/11/20 03:59:32;;;;;;;34.78;15.45;;;;;;;;;;7390809;19;20019;-72
2022/11/20 04:01:58;;;;;;;37.28;17.45;;;;;;;;;;7391114;19;20018;-72
2022/11/20 04:04:23;;;;;;;39.35;15.88;;;;;;;;;;7390902;19;19999;-72
2022/11/20 04:06:48;;;;;;;36.92;15.82;;;;;;;;;;7389430;19;20516;-72
2022/11/20 04:09:14;;;;;;;36.65;17.35;;;;;;;;;;7388494;19;19994;-72
2022/11/20 04:11:40;;;;;;;40.40;17.08;;;;;;;;;;7390524;19;20022;-72
2022/11/20 04:14:11;;;;;;;39.53;17.30;;;;;;;;;;7390386;19;20003;-72
2022/11/20 04:16:37;;;;;;;39.17;16.20;;;;;;;;;;7389269;19;19999;-72
2022/11/20 04:19:05;;;;;;;37.47;15.05;;;;;;;;;;7388088;19;20395;-72
2022/11/20 04:21:30;;;;;;;34.58;15.88;;;;;;;;;;7390521;19;20278;-72
2022/11/20 04:23:56;;;;;;;40.80;17.80;;;;;;;;;;7389554;19;20024;-72
2022/11/20 04:26:24;;;;;;;37.13;16.65;;;;;;;;;;7389092;19;20020;-73
2022/11/20 04:28:50;;;;;;;34.78;16.67;;;;;;;;;;7387156;19;19999;-72
2022/11/20 04:31:27;;;;;;;42.50;18.15;;;;;;;;;;7389382;19;20449;-72
2022/11/20 04:33:52;;;;;;;35.10;16.48;;;;;;;;;;7389279;19;19998;-72
2022/11/20 04:36:24;;;;;;;44.38;17.98;;;;;;;;;;7387135;19;20001;-72
2022/11/20 04:38:56;;;;;;;;;;;;;;;;;;7390019;19;20353;-72
2022/11/20 04:41:24;;;;;;;35.65;15.20;;;;;;;;;;7389001;19;20347;-72
2022/11/20 04:43:52;;;;;;;36.78;15.75;;;;;;;;;;7389155;19;19994;-72
2022/11/20 04:46:19;;;;;;;35.63;16.33;;;;;;;;;;7388728;19;19998;-72
2022/11/20 04:48:45;;;;;;;46.25;17.98;;;;;;;;;;7387468;19;20002;-72
2022/11/20 04:51:12;;;;;;;37.42;16.40;;;;;;;;;;7392423;19;20015;-72
2022/11/20 04:53:37;;;;;;;40.83;17.20;;;;;;;;;;7388522;19;20073;-72
2022/11/20 04:56:09;;;;;;;42.80;18.35;;;;;;;;;;7390876;19;19991;-72
2022/11/20 04:58:35;;;;;;;40.80;17.50;;;;;;;;;;7392277;19;20002;-72
2022/11/20 05:01:05;;;;;;;38.55;17.65;;;;;;;;;;7388023;19;20095;-72
2022/11/20 05:03:31;;;;;;;41.30;17.70;;;;;;;;;;7389922;19;19998;-72
2022/11/20 05:05:56;;;;;;;40.40;16.88;;;;;;;;;;7388954;19;20010;-72
2022/11/20 05:08:21;;;;;;;40.95;17.30;;;;;;;;;;7385798;19;20006;-72
2022/11/20 05:10:47;;;;;;;42.45;17.55;;;;;;;;;;7388823;19;20010;-71
2022/11/20 05:13:12;;;;;;;40.60;17.33;;;;;;;;;;7389561;19;20003;-71
2022/11/20 05:15:37;;;;;;;40.55;17.70;;;;;;;;;;7389438;19;20013;-71
2022/11/20 05:18:03;;;;;;;39.47;16.45;;;;;;;;;;7389050;19;20038;-71
2022/11/20 05:20:28;;;;;;;41.05;16.80;;;;;;;;;;7392929;19;20325;-72
2022/11/20 05:22:57;;;;;;;42.65;18.08;;;;;;;;;;7389457;19;19998;-72
2022/11/20 05:25:22;;;;;;;42.38;17.33;;;;;;;;;;7388870;19;19995;-72
2022/11/20 05:27:47;;;;;;;40.25;17.58;;;;;;;;;;7384265;19;20069;-72
2022/11/20 05:30:13;;;;;;;43.85;17.45;;;;;;;;;;7387259;19;19990;-72
2022/11/20 05:32:38;;;;;;;42.55;17.23;;;;;;;;;;7385835;19;19995;-71
2022/11/20 05:35:04;;;;;;;39.92;17.48;;;;;;;;;;7388264;19;20411;-72
2022/11/20 05:37:29;;;;;;;41.78;16.83;;;;;;;;;;7385777;19;19999;-71
2022/11/20 05:39:54;;;;;;;39.97;16.85;;;;;;;;;;7388115;19;19991;-70
2022/11/20 05:42:32;;;;;;;44.63;18.00;;;;;;;;;;7389893;19;19994;-71
2022/11/20 05:45:02;;;;;;;42.60;17.38;;;;;;;;;;7388196;19;20062;-72
2022/11/20 05:47:31;;;;;;;45.13;18.83;;;;;;;;;;7384563;19;19999;-70
2022/11/20 05:49:56;;;;;;;41.33;17.73;;;;;;;;;;7387086;19;20313;-71
2022/11/20 05:52:21;;;;;;;41.35;17.75;;;;;;;;;;7387314;19;20010;-70
2022/11/20 05:54:47;;;;;;;44.13;18.08;;;;;;;;;;7388002;19;20002;-73
2022/11/20 05:57:12;;;;;;;33.35;15.88;;;;;;;;;;7386392;19;20002;-73
2022/11/20 05:59:37;;;;;;;44.30;18.65;;;;;;;;;;7387645;19;20321;-69
2022/11/20 06:02:03;;;;;;;39.65;17.83;;;;;;;;;;7387784;19;20019;-70
2022/11/20 06:04:28;;;;;;;43.65;17.42;;;;;;;;;;7387134;19;19998;-71
2022/11/20 06:06:53;;;;;;;40.42;17.98;;;;;;;;;;7384107;19;20002;-71
2022/11/20 06:09:19;;;;;;;38.40;16.88;;;;;;;;;;7385633;19;20021;-71
2022/11/20 06:11:44;;;;;;;39.78;16.08;;;;;;;;;;7387243;19;19999;-70
2022/11/20 06:14:09;;;;;;;40.25;16.92;;;;;;;;;;7387165;19;20002;-72
2022/11/20 06:16:35;;;;;;;41.13;16.83;;;;;;;;;;7386498;19;20351;-70
2022/11/20 06:19:00;;;;;;;37.92;17.15;;;;;;;;;;7387285;19;20289;-71
2022/11/20 06:21:25;;;;;;;35.38;16.33;;;;;;;;;;7387022;19;19998;-70
2022/11/20 06:23:52;;;;;;;37.22;16.48;;;;;;;;;;7386702;19;19999;-71
2022/11/20 06:26:23;;;;;;;33.80;14.55;;;;;;;;;;7389592;19;20021;-71
2022/11/20 06:28:49;;;;;;;35.60;13.83;;;;;;;;;;7385860;19;20389;-71
2022/11/20 06:31:16;;;;;;;32.78;13.18;;;;;;;;;;7387133;19;20021;-71
2022/11/20 06:33:43;;;;;;;34.53;13.63;;;;;;;;;;7384515;19;20567;-71
2022/11/20 06:36:10;;;;;;;33.38;14.60;;;;;;;;;;7386128;19;20023;-71
2022/11/20 06:38:36;;;;;;;31.90;14.07;;;;;;;;;;7385837;19;20013;-71
2022/11/20 06:41:02;;;;;;;33.42;14.63;;;;;;;;;;7389225;19;19998;-71
2022/11/20 06:43:28;;;;;;;35.90;14.02;;;;;;;;;;7389570;19;20471;-70
2022/11/20 06:45:55;;;;;;;36.58;14.77;;;;;;;;;;7392544;19;20002;-71
2022/11/20 06:48:21;;;;;;;30.70;14.05;;;;;;;;;;7386930;19;20002;-71
2022/11/20 06:50:46;;;;;;;32.63;14.48;;;;;;;;;;7394079;19;19994;-71
2022/11/20 06:53:12;;;;;;;36.50;14.55;;;;;;;;;;7396611;19;20030;-71
2022/11/20 06:55:43;;;;;;;37.45;14.13;;;;;;;;;;7395274;19;20010;-71
2022/11/20 06:58:08;;;;;;;;;;;;;;;;;;7396905;19;20002;-71
2022/11/20 07:00:33;;;;;;;22.77;11.13;;;;;;;;;;7396259;19;20286;-71
2022/11/20 07:03:03;;;;;;;29.80;13.52;;;;;;;;;;7397094;19;20861;-71
2022/11/20 07:05:28;;;;;;;31.45;12.07;;;;;;;;;;7397724;19;20027;-71
2022/11/20 07:07:56;;;;;;;27.73;11.00;;;;;;;;;;7394420;19;19998;-71
2022/11/20 07:10:21;;;;;;;30.98;12.45;;;;;;;;;;7397982;19;20011;-71
2022/11/20 07:12:50;;;;;;;30.35;12.98;;;;;;;;;;7393300;19;20045;-71
2022/11/20 07:15:16;;;;;;;34.22;12.68;;;;;;;;;;7393671;19;20298;-71
2022/11/20 07:17:42;;;;;;;32.20;13.18;;;;;;;;;;7388921;19;20474;-71
2022/11/20 07:20:07;;;;;;;25.42;11.52;;;;;;;;;;7390348;19;20016;-71
2022/11/20 07:22:33;;;;;;;30.17;13.00;;;;;;;;;;7390733;19;19999;-71
2022/11/20 07:24:58;;;;;;;30.65;12.75;;;;;;;;;;7392707;19;20374;-70
2022/11/20 07:27:23;;;;;;;26.70;11.68;;;;;;;;;;7335257;19;20006;-71
2022/11/20 07:29:49;;;;;;;32.70;12.95;;;;;;;;;;7394059;19;20074;-71
2022/11/20 07:32:14;;;;;;;30.80;13.18;;;;;;;;;;7396143;19;20329;-71
2022/11/20 07:34:39;;;;;;;32.58;13.10;;;;;;;;;;7391765;19;19995;-71
2022/11/20 07:37:05;;;;;;;33.90;13.60;;;;;;;;;;7389791;19;19995;-71
2022/11/20 07:39:30;;;;;;;30.88;12.27;;;;;;;;;;7392964;19;20014;-71
2022/11/20 07:41:55;;;;;;;31.98;13.57;;;;;;;;;;7394115;19;20093;-71
2022/11/20 07:44:20;;;;;;;30.45;13.02;;;;;;;;;;7391147;19;19997;-71
2022/11/20 07:46:46;;;;;;;28.48;11.88;;;;;;;;;;7391671;19;20002;-71
2022/11/20 07:49:11;;;;;;;30.63;13.77;;;;;;;;;;7387744;19;19999;-72
2022/11/20 07:51:36;;;;;;;36.47;14.07;;;;;;;;;;7385707;19;20002;-71
2022/11/20 07:54:02;;;;;;;35.33;13.73;;;;;;;;;;7389941;19;20024;-71
2022/11/20 07:56:27;;;;;;;28.50;13.32;;;;;;;;;;7386021;19;20028;-71
2022/11/20 07:58:52;;;;;;;33.42;13.50;;;;;;;;;;7385123;19;20534;-71
2022/11/20 08:01:18;;;;;;;35.95;13.82;;;;;;;;;;7387812;19;20330;-71
2022/11/20 08:03:43;;;;;;;33.53;14.38;;;;;;;;;;7386556;19;20346;-71
2022/11/20 08:06:09;;;;;;;32.65;11.95;;;;;;;;;;7388283;19;19995;-71
2022/11/20 08:08:34;;;;;;;31.75;14.20;;;;;;;;;;7385493;19;20341;-71
2022/11/20 08:16:27;;;;;;;33.38;13.95;;;;;;;;;;7390167;19;20009;-71
2022/11/20 08:18:53;;;;;;;32.40;11.95;;;;;;;;;;7395025;19;20065;-71
2022/11/20 08:21:18;;;;;;;28.10;11.80;;;;;;;;;;7391063;19;20524;-71
2022/11/20 08:23:43;;;;;;;36.20;14.13;;;;;;;;;;7391020;19;20073;-71
2022/11/20 08:26:09;;;;;;;36.53;14.20;;;;;;;;;;7390948;19;20058;-71
2022/11/20 08:28:34;;;;;;;31.23;12.38;;;;;;;;;;7386503;19;20070;-71
2022/11/20 08:31:01;;;;;;;31.10;11.95;;;;;;;;;;7390739;19;20050;-71
2022/11/20 08:33:26;;;;;;;36.53;14.52;;;;;;;;;;7388489;19;20078;-70
2022/11/20 08:35:52;;;;;;;29.52;13.40;;;;;;;;;;7390294;19;20003;-71
2022/11/20 08:38:17;;;;;;;27.23;11.90;;;;;;;;;;7387842;19;20027;-71
2022/11/20 08:41:23;;;;;;;31.90;13.85;;;;;;;;;;7390342;19;20021;-71
2022/11/20 08:43:28;;;;;;;29.25;13.20;;;;;;;;;;7392330;19;20008;-72
2022/11/20 08:45:55;;;;;;;28.05;13.98;;;;;;;;;;7389811;19;20527;-72
2022/11/20 08:48:21;;;;;;;32.28;13.63;;;;;;;;;;7387239;19;20011;-72
2022/11/20 08:50:46;;;;;;;30.95;14.32;;;;;;;;;;7378310;19;20053;-73
2022/11/20 08:53:11;;;;;;;30.95;13.40;;;;;;;;;;7387203;19;20024;-73
2022/11/20 08:55:37;;;;;;;33.10;13.85;;;;;;;;;;7384891;19;20014;-72
2022/11/20 08:58:08;;;;;;;32.42;14.52;;;;;;;;;;7385321;19;20334;-73
2022/11/20 09:00:34;;;;;;;25.50;12.43;;;;;;;;;;7385280;19;20027;-72
2022/11/20 09:03:00;;;;;;;31.67;13.00;;;;;;;;;;7391545;19;20003;-72
2022/11/20 09:05:26;;;;;;;31.40;14.38;;;;;;;;;;7385632;19;20007;-72
2022/11/20 09:07:51;;;;;;;33.28;13.98;;;;;;;;;;7384763;19;20013;-72
2022/11/20 09:10:17;;;;;;;32.55;14.43;;;;;;;;;;7386459;19;20009;-71
2022/11/20 09:12:42;;;;;;;34.20;13.80;;;;;;;;;;7387737;19;20014;-72
2022/11/20 09:15:08;;;;;;;28.73;13.82;;;;;;;;;;7386208;19;20398;-73
2022/11/20 09:17:33;;;;;;;29.83;13.68;;;;;;;;;;7384064;19;20003;-73
2022/11/20 09:19:58;;;;;;;30.45;13.43;;;;;;;;;;7384618;19;20035;-74
2022/11/20 09:22:24;;;;;;;29.50;13.35;;;;;;;;;;7386836;19;20012;-72
2022/11/20 09:24:49;;;;;;;30.15;13.10;;;;;;;;;;7385437;19;20471;-72
2022/11/20 09:27:14;;;;;;;36.83;14.88;;;;;;;;;;7383964;19;20117;-74
2022/11/20 09:29:40;;;;;;;29.95;14.30;;;;;;;;;;7384244;19;20334;-73
2022/11/20 09:32:05;;;;;;;31.20;13.85;;;;;;;;;;7383655;19;20003;-73
2022/11/20 09:34:31;;;;;;;32.10;14.95;;;;;;;;;;7384837;19;20047;-72
2022/11/20 09:36:56;;;;;;;32.83;12.70;;;;;;;;;;7380645;19;20007;-73
2022/11/20 09:39:22;;;;;;;31.45;13.95;;;;;;;;;;7386152;19;20002;-72
2022/11/20 09:42:08;;;;;;;34.88;14.98;;;;;;;;;;7384048;19;20440;-73
2022/11/20 09:44:39;;;;;;;30.85;12.00;;;;;;;;;;7385658;19;20007;-73
2022/11/20 09:47:07;;;;;;;;;;;;;;;;;;7384805;19;20390;-72
2022/11/20 09:49:59;;;;;;;29.25;11.98;;;;;;;;;;7382746;19;19918;-73
2022/11/20 09:52:30;;;;;;;;;;;;;;;;;;7387127;19;19998;-73
2022/11/20 09:54:56;;;;;;;31.13;12.23;;;;;;;;;;7384305;19;20351;-74
2022/11/20 09:57:31;;;;;;;33.80;14.38;;;;;;;;;;7384471;19;20003;-72
2022/11/20 10:00:00;;;;;;;28.40;12.90;;;;;;;;;;7383503;19;20010;-72
2022/11/20 10:02:59;;;;;;;29.50;13.05;;;;;;;;;;7387045;19;19994;-73
2022/11/20 10:05:30;;;;;;;30.35;13.00;;;;;;;;;;7385348;19;20448;-73
2022/11/20 10:08:01;;;;;;;31.77;13.60;;;;;;;;;;7381207;19;20675;-73
2022/11/20 10:10:39;;;;;;;28.50;12.93;;;;;;;;;;7384283;19;20420;-74
2022/11/20 10:13:14;;;;;;;27.80;12.10;;;;;;;;;;7385853;19;20436;-74
2022/11/20 10:15:59;;;;;;;27.27;12.43;;;;;;;;;;7384561;19;20006;-74
2022/11/20 10:18:50;;;;;;;32.47;13.20;;;;;;;;;;7381753;19;20011;-73
2022/11/20 10:21:45;;;;;;;31.63;14.47;;;;;;;;;;7385772;19;20003;-73
2022/11/20 10:24:30;;;;;;;32.55;14.25;;;;;;;;;;7385187;19;20019;-74
2022/11/20 10:26:55;;;;;;;32.90;14.27;;;;;;;;;;7388435;19;20003;-73
2022/11/20 10:29:29;;;;;;;30.13;12.98;;;;;;;;;;7390215;19;20003;-73
2022/11/20 10:32:00;;;;;;;31.63;13.25;;;;;;;;;;7392067;19;20006;-73
2022/11/20 10:34:50;;;;;;;30.75;14.07;;;;;;;;;;7390783;19;20009;-73
2022/11/20 10:37:27;;;;;;;26.35;11.82;;;;;;;;;;7390849;19;20002;-73
2022/11/20 10:40:16;;;;;;;28.13;12.07;;;;;;;;;;7391091;19;20041;-72
2022/11/20 10:42:50;;;;;;;29.88;13.63;;;;;;;;;;7393460;19;20003;-73
2022/11/20 10:45:25;;;;;;;28.60;13.27;;;;;;;;;;7394382;19;20344;-73
2022/11/20 10:48:00;;;;;;;29.73;12.90;;;;;;;;;;7387463;19;20366;-73
2022/11/20 10:50:26;;;;;;;25.45;12.65;;;;;;;;;;7391462;19;19995;-73
2022/11/20 10:53:14;;;;;;;31.73;12.30;;;;;;;;;;7392483;19;20019;-73
2022/11/20 10:55:47;;;;;;;27.52;11.25;;;;;;;;;;7392463;19;19999;-73
2022/11/20 10:58:22;;;;;;;23.75;11.80;;;;;;;;;;7390935;19;20023;-72
2022/11/20 11:00:47;;;;;;;23.17;10.60;;;;;;;;;;7392034;19;19991;-73
2022/11/20 11:03:27;;;;;;;25.83;11.70;;;;;;;;;;7393432;19;19995;-72
2022/11/20 11:06:22;;;;;;;25.67;11.80;;;;;;;;;;7389349;19;20044;-72
2022/11/20 11:08:50;;;;;;;28.33;12.88;;;;;;;;;;7390302;19;20141;-72
2022/11/20 11:11:21;;;;;;;29.45;12.35;;;;;;;;;;7393142;19;20010;-72
2022/11/20 11:13:46;;;;;;;26.33;11.55;;;;;;;;;;7391400;19;20032;-72
2022/11/20 11:16:26;;;;;;;25.27;12.43;;;;;;;;;;7393322;19;20006;-72
2022/11/20 11:19:02;;;;;;;28.38;12.52;;;;;;;;;;7388934;19;20856;-73
2022/11/20 11:21:27;;;;;;;28.10;12.60;;;;;;;;;;7391279;19;19999;-72
2022/11/20 11:24:01;;;;;;;29.40;13.95;;;;;;;;;;7389380;19;20002;-73
2022/11/20 11:26:27;;;;;;;28.13;12.75;;;;;;;;;;7391286;19;20023;-73
2022/11/20 11:28:57;;;;;;;25.75;12.45;;;;;;;;;;7388509;19;20381;-73
2022/11/20 11:31:34;;;;;;;24.50;11.77;;;;;;;;;;7392554;19;20611;-73
2022/11/20 11:34:06;;;;;;;32.63;12.52;;;;;;;;;;7389137;19;20018;-73
2022/11/20 11:36:33;;;;;;;27.08;12.07;;;;;;;;;;7391218;19;20009;-72
2022/11/20 11:38:58;;;;;;;25.73;11.82;;;;;;;;;;7387082;19;20691;-72
2022/11/20 11:41:31;;;;;;;28.92;12.18;;;;;;;;;;7392783;19;20073;-73
2022/11/20 11:46:52;;;;;;;25.65;11.02;;;;;;;;;;7390626;19;20129;-73
2022/11/20 11:49:19;;;;;;;30.02;12.80;;;;;;;;;;7388867;19;20041;-75
2022/11/20 11:52:08;;;;;;;24.08;11.48;;;;;;;;;;7389382;19;20491;-73
2022/11/20 11:55:03;;;;;;;28.13;11.55;;;;;;;;;;7389030;19;19998;-72
2022/11/20 11:57:52;;;;;;;24.80;12.13;;;;;;;;;;7387674;19;20014;-73
2022/11/20 12:00:20;;;;;;;22.75;10.20;;;;;;;;;;7390272;19;20007;-72
2022/11/20 12:02:46;;;;;;;28.40;10.50;;;;;;;;;;7389640;19;20027;-72
2022/11/20 12:05:49;;;;;;;20.98;9.70;;;;;;;;;;7388131;19;20102;-72
2022/11/20 12:08:23;;;;;;;17.95;9.90;;;;;;;;;;7382169;19;20481;-73
2022/11/20 12:10:55;;;;;;;20.92;10.70;;;;;;;;;;7387259;19;20516;-73
2022/11/20 12:13:39;;;;;;;23.10;10.73;;;;;;;;;;7390639;19;20077;-73
2022/11/20 12:16:05;;;;;;;19.48;10.13;;;;;;;;;;7389979;19;20010;-73
2022/11/20 12:18:31;;;;;;;21.73;9.88;;;;;;;;;;7385597;19;19998;-74
2022/11/20 12:21:18;;;;;;;19.10;9.90;;;;;;;;;;7388661;19;20365;-73
2022/11/20 12:24:02;;;;;;;21.10;9.68;;;;;;;;;;7389169;19;20501;-73
2022/11/20 12:26:57;;;;;;;20.23;10.05;;;;;;;;;;7388973;19;20436;-71
2022/11/20 12:29:42;;;;;;;20.50;10.25;;;;;;;;;;7388250;19;20126;-72
2022/11/20 12:32:24;;;;;;;21.33;10.00;;;;;;;;;;7389668;19;19998;-72
2022/11/20 12:35:14;;;;;;;17.83;9.15;;;;;;;;;;7386861;19;19995;-73
2022/11/20 12:38:06;;;;;;;19.13;10.35;;;;;;;;;;7386770;19;20414;-72
2022/11/20 12:40:52;;;;;;;21.25;11.32;;;;;;;;;;7386183;19;20022;-72
2022/11/20 12:46:27;;;;;;;22.08;10.48;;;;;;;;;;7387773;19;20087;-73
2022/11/20 12:49:01;;;;;;;21.17;11.13;;;;;;;;;;7386321;19;20011;-74
2022/11/20 12:51:58;;;;;;;23.17;10.80;;;;;;;;;;7384865;19;20088;-74
2022/11/20 12:54:38;;;;;;;20.30;11.43;;;;;;;;;;7385212;19;20003;-73
2022/11/20 12:57:23;;;;;;;20.90;10.45;;;;;;;;;;7385517;19;20083;-73
2022/11/20 13:00:09;;;;;;;21.30;10.38;;;;;;;;;;7385494;19;20376;-73
2022/11/20 13:03:08;;;;;;;23.33;10.48;;;;;;;;;;7385660;19;20011;-72
2022/11/20 13:06:01;;;;;;;21.52;9.38;;;;;;;;;;7386115;19;20009;-73
2022/11/20 13:08:40;;;;;;;18.42;9.60;;;;;;;;;;7386419;19;20010;-72
2022/11/20 13:11:27;;;;;;;18.83;10.00;;;;;;;;;;7388929;19;20131;-72
2022/11/20 13:14:11;;;;;;;21.50;10.75;;;;;;;;;;7385270;19;20007;-72
2022/11/20 13:17:00;;;;;;;17.55;8.18;;;;;;;;;;7383917;19;20022;-73
2022/11/20 13:19:26;;;;;;;20.55;9.73;;;;;;;;;;7386560;19;20009;-72
2022/11/20 13:21:52;;;;;;;18.58;9.88;;;;;;;;;;7384561;19;20400;-73
2022/11/20 13:24:23;;;;;;;22.15;10.18;;;;;;;;;;7385422;19;20011;-73
2022/11/20 13:27:08;;;;;;;23.70;11.15;;;;;;;;;;7383188;19;20017;-71
2022/11/20 13:29:36;;;;;;;21.92;9.65;;;;;;;;;;7385631;19;20014;-72
2022/11/20 13:32:15;;;;;;;24.67;11.35;;;;;;;;;;7384784;19;20028;-72
2022/11/20 13:35:11;;;;;;;24.48;10.82;;;;;;;;;;7380102;19;19999;-72
2022/11/20 13:37:37;;;;;;;23.05;10.60;;;;;;;;;;7383916;19;20017;-72
2022/11/20 13:40:10;;;;;;;21.45;9.75;;;;;;;;;;7386169;19;20030;-71
2022/11/20 13:42:38;;;;;;;26.63;11.48;;;;;;;;;;7385196;19;20002;-71
2022/11/20 13:45:28;;;;;;;24.42;11.25;;;;;;;;;;7387309;19;20003;-70
2022/11/20 13:47:54;;;;;;;23.05;11.55;;;;;;;;;;7385601;19;20013;-71
2022/11/20 13:50:35;;;;;;;22.85;10.82;;;;;;;;;;7386825;19;20015;-72
2022/11/20 13:53:16;;;;;;;28.37;11.60;;;;;;;;;;7381437;19;20055;-72
2022/11/20 13:55:54;;;;;;;;;;;;;;;;;;7384642;19;20007;-71
2022/11/20 13:58:37;;;;;;;22.85;10.48;;;;;;;;;;7384863;19;19935;-72
2022/11/20 14:01:14;;;;;;;25.45;11.52;;;;;;;;;;7384226;19;19998;-72
2022/11/20 14:03:40;;;;;;;21.10;10.48;;;;;;;;;;7384293;19;19998;-72
2022/11/20 14:06:14;;;;;;;23.15;11.45;;;;;;;;;;7384278;19;20068;-72
2022/11/20 14:08:44;;;;;;;24.88;11.77;;;;;;;;;;7381279;19;20010;-72
2022/11/20 14:11:18;;;;;;;23.58;10.60;;;;;;;;;;7386704;19;20378;-72
2022/11/20 14:14:03;;;;;;;26.70;11.68;;;;;;;;;;7383425;19;20005;-72
2022/11/20 14:16:33;;;;;;;22.08;10.93;;;;;;;;;;7386489;19;20450;-72
2022/11/20 14:19:19;;;;;;;24.58;11.48;;;;;;;;;;7385590;19;20358;-73
2022/11/20 14:21:44;;;;;;;24.98;12.00;;;;;;;;;;7384463;19;20010;-72
2022/11/20 14:24:12;;;;;;;27.67;12.27;;;;;;;;;;7386027;19;20003;-73
2022/11/20 14:26:41;;;;;;;24.27;12.45;;;;;;;;;;7385037;19;20002;-72
2022/11/20 14:29:23;;;;;;;24.35;10.95;;;;;;;;;;7383854;19;19999;-73
2022/11/20 14:31:52;;;;;;;26.20;11.00;;;;;;;;;;7382588;19;20140;-72
2022/11/20 14:34:40;;;;;;;26.42;11.18;;;;;;;;;;7383501;19;20018;-72
2022/11/20 14:37:10;;;;;;;24.88;11.05;;;;;;;;;;7383308;19;20029;-73
2022/11/20 14:39:40;;;;;;;25.53;11.80;;;;;;;;;;7383697;19;20045;-72
2022/11/20 14:42:16;;;;;;;26.27;11.50;;;;;;;;;;7385545;19;20002;-72
2022/11/20 14:44:44;;;;;;;26.92;12.40;;;;;;;;;;7383486;19;19994;-72
2022/11/20 14:47:12;;;;;;;25.73;12.40;;;;;;;;;;7384777;19;20010;-72
2022/11/20 14:49:39;;;;;;;22.85;10.43;;;;;;;;;;7381134;19;20410;-72
2022/11/20 14:52:21;;;;;;;24.00;11.68;;;;;;;;;;7384904;19;20017;-73